Time;durP1;ratioP1;P1;durP2;ratioP2;P2;SDS_P1;SDS_P2;PMS_P1;PMS_P2;Temp;Humidity;BMP_temperature;BMP_pressure;BME280_temperature;BME280_humidity;BME280_pressure;Samples;Min_cycle;Max_cycle;Signal;HPM_P1;HPM_P2
2023/03/13 00:02:54;;;;;;;10.10;6.40;;;;;;;2.93;78.94;100118.95;105508;1262;100536;-78
2023/03/13 00:05:40;;;;;;;12.20;6.70;;;;;;;2.94;78.87;100118.73;105232;1268;97955;-78
2023/03/13 00:08:28;;;;;;;19.40;7.50;;;;;;;2.94;78.81;100114.17;105500;1262;98429;-78
2023/03/13 00:11:14;;;;;;;13.30;7.60;;;;;;;2.94;78.95;100109.71;105546;1264;102575;-78
2023/03/13 00:14:02;;;;;;;14.60;8.00;;;;;;;2.96;79.08;100107.78;105467;1266;99321;-79
2023/03/13 00:16:47;;;;;;;16.40;8.10;;;;;;;2.97;79.07;100103.79;105340;1261;98404;-79
2023/03/13 00:19:33;;;;;;;14.00;7.80;;;;;;;2.99;79.16;100100.09;105468;1266;97893;-78
2023/03/13 00:22:19;;;;;;;17.90;9.00;;;;;;;3.00;79.08;100103.71;105502;1276;98483;-78
2023/03/13 00:25:05;;;;;;;18.20;8.00;;;;;;;3.02;79.31;100107.20;105416;1263;102102;-79
2023/03/13 00:27:50;;;;;;;16.10;8.40;;;;;;;3.02;79.31;100107.01;105431;1266;100305;-78
2023/03/13 00:30:36;;;;;;;19.20;9.50;;;;;;;3.03;79.53;100104.44;105379;1262;98761;-79
2023/03/13 00:33:22;;;;;;;17.00;8.90;;;;;;;3.04;79.36;100101.90;105493;1268;97901;-78
2023/03/13 00:36:13;;;;;;;22.10;9.30;;;;;;;3.02;79.45;100100.83;105402;1267;98441;-79
2023/03/13 00:38:59;;;;;;;18.30;8.50;;;;;;;3.01;79.63;100096.34;105210;1268;101476;-78
2023/03/13 00:41:47;;;;;;;20.70;10.70;;;;;;;3.01;79.64;100096.52;105462;1267;99086;-77
2023/03/13 00:44:32;;;;;;;23.60;11.20;;;;;;;3.02;79.70;100095.40;105435;1262;99139;-78
2023/03/13 00:47:18;;;;;;;19.90;11.00;;;;;;;3.03;79.93;100093.16;105469;1264;97966;-78
2023/03/13 00:50:04;;;;;;;23.30;11.60;;;;;;;3.04;80.02;100085.82;105416;1268;100399;-79
2023/03/13 00:52:49;;;;;;;20.80;10.50;;;;;;;3.05;80.11;100078.45;105479;1262;102335;-78
2023/03/13 00:55:34;;;;;;;19.20;9.50;;;;;;;3.07;80.22;100074.97;105451;1266;99828;-78
2023/03/13 00:58:21;;;;;;;15.50;8.40;;;;;;;3.07;80.31;100072.99;105346;1268;97793;-78
2023/03/13 01:01:19;;;;;;;16.30;8.40;;;;;;;3.08;80.22;100069.35;105457;1262;98409;-79
2023/03/13 01:04:09;;;;;;;17.50;9.40;;;;;;;3.08;80.18;100061.29;105379;1267;97939;-79
2023/03/13 01:06:54;;;;;;;18.00;9.20;;;;;;;3.07;80.30;100055.19;105397;1268;102095;-79
2023/03/13 01:09:40;;;;;;;17.90;9.80;;;;;;;3.07;80.41;100055.02;105156;1268;99843;-78
2023/03/13 01:12:25;;;;;;;17.40;9.80;;;;;;;3.08;80.50;100046.98;105364;1268;99191;-78
2023/03/13 01:15:11;;;;;;;22.70;10.30;;;;;;;3.09;80.56;100044.02;105303;1267;97960;-78
2023/03/13 01:17:56;;;;;;;19.70;9.30;;;;;;;3.11;80.43;100041.05;105406;1262;96403;-78
2023/03/13 01:20:42;;;;;;;15.00;8.50;;;;;;;3.10;80.55;100041.06;105268;1268;102644;-78
2023/03/13 01:23:28;;;;;;;16.00;8.80;;;;;;;3.09;80.61;100035.86;105423;1267;100007;-79
2023/03/13 01:26:13;;;;;;;18.40;9.40;;;;;;;3.08;80.59;100033.17;105307;1263;97991;-78
2023/03/13 01:28:59;;;;;;;18.60;9.50;;;;;;;3.08;80.77;100037.79;105567;1268;97965;-78
2023/03/13 01:31:45;;;;;;;15.60;9.20;;;;;;;3.07;80.88;100041.61;105449;1268;98585;-78
2023/03/13 01:34:30;;;;;;;15.90;9.00;;;;;;;3.07;80.96;100046.52;105238;1269;101351;-79
2023/03/13 01:37:16;;;;;;;17.90;10.30;;;;;;;3.07;81.05;100051.29;105482;1262;99252;-78
2023/03/13 01:40:02;;;;;;;20.40;10.30;;;;;;;3.05;81.11;100041.05;105458;1267;98467;-79
2023/03/13 01:42:55;;;;;;;19.70;10.40;;;;;;;3.03;81.18;100034.73;105404;1262;97953;-79
2023/03/13 01:46:06;;;;;;;21.60;10.60;;;;;;;3.00;81.14;100028.15;105201;1268;97975;-77
2023/03/13 01:49:20;;;;;;;21.90;11.20;;;;;;;2.99;81.02;100020.33;105437;1264;101371;-78
2023/03/13 01:52:19;;;;;;;24.30;12.00;;;;;;;2.99;81.13;100014.48;105468;1263;98972;-79
2023/03/13 01:55:16;;;;;;;18.90;11.00;;;;;;;3.00;81.08;100011.11;105322;1268;98403;-78
2023/03/13 01:58:05;;;;;;;20.90;10.10;;;;;;;2.98;81.07;100001.77;105361;1271;97822;-78
2023/03/13 02:00:52;;;;;;;19.20;10.60;;;;;;;2.95;81.03;100002.05;105194;1267;97926;-78
2023/03/13 02:03:37;;;;;;;22.30;10.70;;;;;;;2.94;81.14;99999.02;105144;1272;101361;-78
2023/03/13 02:06:26;;;;;;;20.80;11.30;;;;;;;2.94;81.27;100000.58;105399;1267;100371;-79
2023/03/13 02:09:18;;;;;;;28.90;14.80;;;;;;;2.94;81.19;99998.27;105411;1276;97973;-78
2023/03/13 02:12:17;;;;;;;23.60;10.90;;;;;;;2.93;81.17;99990.46;105404;1266;98677;-78
2023/03/13 02:15:07;;;;;;;22.60;12.00;;;;;;;2.91;81.24;99987.83;105256;1270;98049;-79
2023/03/13 02:17:54;;;;;;;26.50;12.70;;;;;;;2.90;81.34;99984.05;105184;1268;102678;-79
2023/03/13 02:20:40;;;;;;;26.70;12.40;;;;;;;2.88;81.36;99985.18;105386;1268;99968;-78
2023/03/13 02:23:33;;;;;;;20.60;11.70;;;;;;;2.88;81.50;99991.01;105384;1268;97954;-78
2023/03/13 02:26:19;;;;;;;26.90;12.80;;;;;;;2.87;81.57;99995.60;105386;1266;98806;-78
2023/03/13 02:29:04;;;;;;;22.20;13.00;;;;;;;2.87;81.74;99997.21;105425;1266;98430;-77
2023/03/13 02:31:50;;;;;;;28.00;13.70;;;;;;;2.86;81.99;99994.36;105302;1268;102732;-78
2023/03/13 02:34:39;;;;;;;25.10;13.30;;;;;;;2.86;81.92;99994.50;105396;1267;99091;-78
2023/03/13 02:37:27;;;;;;;23.40;13.40;;;;;;;2.87;82.08;99996.35;106072;1267;98897;-78
2023/03/13 02:40:20;;;;;;;21.90;13.10;;;;;;;2.88;82.30;99989.02;107297;1268;97963;-78
2023/03/13 02:43:14;;;;;;;26.00;13.10;;;;;;;2.88;82.20;99983.73;105128;1263;97894;-78
2023/03/13 02:46:02;;;;;;;22.30;12.70;;;;;;;2.89;82.19;99988.40;105469;1264;101358;-79
2023/03/13 02:48:54;;;;;;;28.50;12.80;;;;;;;2.90;82.20;99992.30;105301;1268;99832;-79
2023/03/13 02:51:44;;;;;;;22.00;13.10;;;;;;;2.90;81.96;99993.05;105315;1269;98733;-78
2023/03/13 02:54:34;;;;;;;31.10;14.30;;;;;;;2.89;82.00;99995.64;105322;1267;98587;-78
2023/03/13 02:57:21;;;;;;;22.60;12.50;;;;;;;2.88;82.15;99997.27;105363;1268;99621;-78
2023/03/13 03:00:11;;;;;;;21.60;13.30;;;;;;;2.88;82.32;99999.19;105240;1268;101327;-79
2023/03/13 03:02:57;;;;;;;22.70;13.10;;;;;;;2.89;82.46;99995.05;105193;1266;99205;-78
2023/03/13 03:05:43;;;;;;;22.30;12.90;;;;;;;2.89;82.48;99989.80;105396;1267;99438;-78
2023/03/13 03:08:28;;;;;;;19.60;12.00;;;;;;;2.89;82.56;99991.88;105348;1276;101417;-79
2023/03/13 03:11:14;;;;;;;21.10;12.80;;;;;;;2.88;82.52;99993.20;105349;1264;97966;-77
2023/03/13 03:14:01;;;;;;;22.10;12.90;;;;;;;2.89;82.68;99989.83;105365;1268;102596;-79
2023/03/13 03:16:48;;;;;;;18.90;11.30;;;;;;;2.88;83.01;99989.89;105326;1269;99720;-78
2023/03/13 03:19:33;;;;;;;21.50;11.40;;;;;;;2.87;83.07;99989.09;105427;1267;98380;-78
2023/03/13 03:22:19;;;;;;;22.50;12.10;;;;;;;2.86;83.06;99988.91;105418;1267;97867;-78
2023/03/13 03:25:06;;;;;;;22.60;12.10;;;;;;;2.85;83.37;99993.77;105422;1267;97894;-78
2023/03/13 03:27:52;;;;;;;23.80;11.90;;;;;;;2.83;83.59;99998.89;105366;1263;102621;-78
2023/03/13 03:30:40;;;;;;;25.10;11.80;;;;;;;2.81;83.84;99993.95;105350;1275;99138;-79
2023/03/13 03:33:25;;;;;;;22.60;12.30;;;;;;;2.80;84.23;99991.39;105341;1263;98457;-79
2023/03/13 03:36:15;;;;;;;22.10;12.30;;;;;;;2.79;84.39;99986.09;105643;1268;99142;-79
2023/03/13 03:39:03;;;;;;;21.20;12.60;;;;;;;2.79;84.73;99982.86;105879;1264;97960;-79
2023/03/13 03:41:50;;;;;;;22.40;13.80;;;;;;;2.80;84.87;99981.52;105776;1267;102694;-78
2023/03/13 03:44:36;;;;;;;20.80;12.40;;;;;;;2.82;85.08;99974.32;105646;1264;99138;-79
2023/03/13 03:47:22;;;;;;;22.60;13.10;;;;;;;2.81;85.28;99978.59;105610;1267;98826;-78
2023/03/13 03:50:09;;;;;;;17.80;12.70;;;;;;;2.81;85.56;99981.02;105696;1264;97874;-78
2023/03/13 03:52:59;;;;;;;;;;;;;;;2.81;85.64;99975.31;105720;1267;97764;-80
2023/03/13 03:55:46;;;;;;;22.00;12.30;;;;;;;2.79;85.94;99966.97;105840;1264;102631;-79
2023/03/13 03:58:32;;;;;;;22.30;13.90;;;;;;;2.78;86.14;99967.42;105859;1266;99768;-79
2023/03/13 04:01:34;;;;;;;21.90;14.10;;;;;;;2.76;86.57;99966.09;105710;1262;98010;-79
2023/03/13 04:04:22;;;;;;;23.40;14.10;;;;;;;2.74;86.98;99956.60;105641;1267;98064;-78
2023/03/13 04:07:11;;;;;;;25.10;14.30;;;;;;;2.72;87.55;99955.23;105727;1267;97954;-79
2023/03/13 04:09:58;;;;;;;32.10;16.50;;;;;;;2.69;88.07;99947.61;105592;1264;103049;-79
2023/03/13 04:12:54;;;;;;;23.60;13.80;;;;;;;2.68;88.53;99937.79;105374;1264;99107;-78
2023/03/13 04:15:41;;;;;;;29.20;15.50;;;;;;;2.68;88.73;99931.67;105403;1264;98672;-79
2023/03/13 04:18:28;;;;;;;22.50;14.10;;;;;;;2.68;89.04;99929.69;105563;1276;97967;-78
2023/03/13 04:21:13;;;;;;;23.70;14.50;;;;;;;2.67;89.51;99929.14;106007;1263;98468;-78
2023/03/13 04:24:04;;;;;;;25.40;15.20;;;;;;;2.67;89.65;99924.74;105390;1267;101834;-79
2023/03/13 04:26:51;;;;;;;20.60;13.40;;;;;;;2.67;89.82;99920.66;105070;1267;100082;-78
2023/03/13 04:29:36;;;;;;;26.00;15.60;;;;;;;2.67;90.13;99919.60;105387;1266;97922;-78
2023/03/13 04:32:41;;;;;;;26.10;15.40;;;;;;;2.66;90.31;99909.66;105369;1267;98144;-78
2023/03/13 04:35:45;;;;;;;29.30;15.50;;;;;;;2.65;90.69;99902.89;105383;1264;98941;-78
2023/03/13 04:39:03;;;;;;;21.10;14.50;;;;;;;2.65;91.06;99899.35;105095;1267;101355;-79
2023/03/13 04:42:11;;;;;;;24.80;14.50;;;;;;;2.66;91.12;99901.87;105367;1264;100566;-78
2023/03/13 04:45:16;;;;;;;22.40;13.80;;;;;;;2.67;91.40;99907.77;105234;1264;107303;-78
2023/03/13 04:48:17;;;;;;;25.60;15.50;;;;;;;2.68;91.62;99912.63;105361;1263;98202;-79
2023/03/13 04:51:11;;;;;;;26.40;14.30;;;;;;;2.69;91.68;99906.85;105455;1267;97887;-78
2023/03/13 04:54:26;;;;;;;22.30;13.30;;;;;;;2.69;91.87;99905.84;104856;1271;102371;-78
2023/03/13 04:57:12;;;;;;;30.80;15.30;;;;;;;2.70;92.00;99904.06;105364;1268;100342;-78
2023/03/13 05:00:18;;;;;;;27.40;15.70;;;;;;;2.73;92.25;99906.59;105152;1267;98049;-78
2023/03/13 05:03:30;;;;;;;21.80;14.20;;;;;;;2.75;92.41;99903.58;105297;1267;97959;-78
2023/03/13 05:06:16;;;;;;;27.80;15.60;;;;;;;2.77;92.41;99902.49;105446;1266;98035;-78
2023/03/13 05:09:17;;;;;;;27.60;15.20;;;;;;;2.78;92.84;99902.36;105295;1266;102172;-78
2023/03/13 05:12:15;;;;;;;24.30;14.10;;;;;;;2.81;93.04;99901.26;105609;1264;100461;-77
2023/03/13 05:15:29;;;;;;;24.00;15.10;;;;;;;2.83;93.22;99902.13;104936;1262;99322;-78
2023/03/13 05:18:34;;;;;;;30.20;16.50;;;;;;;2.84;93.48;99901.63;105671;1264;97969;-79
2023/03/13 05:21:27;;;;;;;29.60;16.10;;;;;;;2.87;93.53;99902.67;105220;1270;98385;-79
2023/03/13 05:24:22;;;;;;;23.90;13.40;;;;;;;2.90;93.85;99903.24;105339;1264;102088;-78
2023/03/13 05:27:19;;;;;;;25.30;14.70;;;;;;;2.92;94.03;99896.45;105237;1279;99156;-78
2023/03/13 05:30:25;;;;;;;24.40;14.50;;;;;;;2.94;94.16;99889.48;105144;1264;99060;-79
2023/03/13 05:33:25;;;;;;;22.80;13.50;;;;;;;2.96;94.33;99889.80;105340;1264;98123;-78
2023/03/13 05:36:21;;;;;;;24.00;14.70;;;;;;;2.99;94.39;99885.26;105175;1264;99624;-78
2023/03/13 05:39:17;;;;;;;22.60;13.60;;;;;;;3.02;94.52;99881.96;105174;1264;101918;-78
2023/03/13 05:42:06;;;;;;;21.20;14.30;;;;;;;3.04;94.78;99882.44;105373;1267;100206;-77
2023/03/13 05:45:11;;;;;;;25.00;13.50;;;;;;;3.06;94.82;99887.52;105282;1267;98363;-78
2023/03/13 05:48:15;;;;;;;24.00;13.90;;;;;;;3.07;95.19;99883.59;105318;1263;98095;-77
2023/03/13 05:51:20;;;;;;;24.20;14.80;;;;;;;3.08;95.50;99878.85;105204;1263;98049;-78
2023/03/13 05:54:16;;;;;;;26.30;14.60;;;;;;;3.09;95.77;99878.17;105267;1264;102610;-78
2023/03/13 05:57:20;;;;;;;21.70;14.30;;;;;;;3.13;95.90;99877.80;105402;1267;99104;-78
2023/03/13 06:00:22;;;;;;;25.70;15.50;;;;;;;3.17;96.12;99874.77;105455;1267;97963;-79
2023/03/13 06:03:27;;;;;;;24.20;15.00;;;;;;;3.21;96.27;99870.45;105302;1268;97989;-78
2023/03/13 06:06:14;;;;;;;25.60;15.80;;;;;;;3.25;96.14;99867.20;105411;1264;98516;-81
2023/03/13 06:09:06;;;;;;;23.40;14.70;;;;;;;3.29;96.15;99870.37;105192;1267;101352;-78
2023/03/13 06:11:53;;;;;;;22.20;13.50;;;;;;;3.32;96.40;99866.64;105304;1264;100353;-78
2023/03/13 06:14:39;;;;;;;23.00;14.00;;;;;;;3.36;96.51;99860.61;105206;1263;97990;-79
2023/03/13 06:17:25;;;;;;;20.90;13.60;;;;;;;3.39;96.59;99857.28;105232;1268;98161;-78
2023/03/13 06:20:11;;;;;;;21.30;14.40;;;;;;;3.44;96.63;99856.24;105281;1263;98490;-78
2023/03/13 06:22:56;;;;;;;21.50;13.80;;;;;;;3.48;96.86;99861.30;105328;1262;102603;-77
2023/03/13 06:25:46;;;;;;;20.30;13.00;;;;;;;3.53;96.95;99861.11;105339;1266;99094;-77
2023/03/13 06:28:32;;;;;;;17.60;12.20;;;;;;;3.58;97.08;99860.40;105828;1267;99438;-78
2023/03/13 06:31:17;;;;;;;20.90;13.20;;;;;;;3.63;97.07;99857.40;105402;1262;98551;-78
2023/03/13 06:34:03;;;;;;;22.40;13.40;;;;;;;3.69;97.37;99861.01;105313;1262;98553;-79
2023/03/13 06:36:48;;;;;;;19.70;13.70;;;;;;;3.74;97.69;99862.77;105316;1267;101338;-78
2023/03/13 06:39:34;;;;;;;22.40;14.00;;;;;;;3.81;97.51;99859.21;105340;1262;101059;-78
2023/03/13 06:42:20;;;;;;;20.00;12.90;;;;;;;3.85;97.46;99854.86;105380;1264;97970;-78
2023/03/13 06:45:06;;;;;;;23.00;13.20;;;;;;;3.89;97.42;99858.84;105318;1262;97885;-77
2023/03/13 06:47:52;;;;;;;21.90;13.30;;;;;;;3.94;97.43;99855.88;105240;1268;99648;-77
2023/03/13 06:50:39;;;;;;;22.00;12.30;;;;;;;3.98;97.40;99857.17;105233;1262;102639;-78
2023/03/13 06:53:24;;;;;;;25.30;13.90;;;;;;;4.01;97.47;99861.61;105474;1264;99716;-78
2023/03/13 06:56:10;;;;;;;23.00;13.30;;;;;;;4.05;97.41;99856.95;105262;1269;98929;-79
2023/03/13 06:58:56;;;;;;;19.80;12.70;;;;;;;4.09;97.51;99853.42;105260;1264;97980;-78
2023/03/13 07:01:42;;;;;;;17.90;12.20;;;;;;;4.14;97.50;99848.78;105354;1267;98508;-78
2023/03/13 07:04:27;;;;;;;23.60;12.00;;;;;;;4.19;97.69;99845.67;105343;1267;102629;-78
2023/03/13 07:07:13;;;;;;;19.90;11.70;;;;;;;4.25;97.77;99845.09;105182;1262;99223;-79
2023/03/13 07:09:58;;;;;;;17.50;11.60;;;;;;;4.30;97.54;99838.40;105366;1262;99355;-78
2023/03/13 07:12:44;;;;;;;21.40;11.60;;;;;;;4.36;97.83;99834.86;105333;1267;97957;-77
2023/03/13 07:15:29;;;;;;;23.00;12.50;;;;;;;4.43;97.79;99830.88;105149;1261;99670;-78
2023/03/13 07:18:15;;;;;;;23.80;12.60;;;;;;;4.50;97.80;99832.46;105345;1261;101350;-78
2023/03/13 07:21:05;;;;;;;20.50;13.20;;;;;;;4.56;97.71;99823.08;105285;1264;100182;-78
2023/03/13 07:23:50;;;;;;;21.50;11.70;;;;;;;4.65;97.73;99827.37;105140;1264;98985;-78
2023/03/13 07:26:36;;;;;;;29.30;15.00;;;;;;;4.75;97.85;99819.44;105273;1267;98123;-77
2023/03/13 07:29:22;;;;;;;22.50;14.50;;;;;;;4.85;97.92;99816.94;105223;1262;98485;-78
2023/03/13 07:32:08;;;;;;;23.50;14.00;;;;;;;4.94;98.03;99822.54;105263;1268;102833;-79
2023/03/13 07:34:54;;;;;;;23.20;13.70;;;;;;;5.04;98.05;99816.88;105128;1267;99204;-78
2023/03/13 07:37:40;;;;;;;22.80;14.00;;;;;;;5.12;97.81;99813.87;105154;1264;97967;-77
2023/03/13 07:40:25;;;;;;;24.00;13.90;;;;;;;5.19;97.84;99816.20;105247;1267;97962;-78
2023/03/13 07:43:11;;;;;;;24.80;14.80;;;;;;;5.29;98.01;99816.63;105306;1267;98939;-79
2023/03/13 07:46:00;;;;;;;23.80;14.50;;;;;;;5.40;98.32;99813.46;105270;1266;101355;-77
2023/03/13 07:48:46;;;;;;;19.30;12.90;;;;;;;5.50;98.37;99802.96;105321;1267;99177;-78
2023/03/13 07:51:32;;;;;;;19.10;12.00;;;;;;;5.59;98.46;99803.14;105216;1262;98026;-79
2023/03/13 07:54:17;;;;;;;19.40;11.90;;;;;;;5.67;98.48;99798.52;105276;1262;99322;-77
2023/03/13 07:57:03;;;;;;;18.70;11.10;;;;;;;5.76;98.55;99800.73;105144;1263;98219;-79
2023/03/13 07:59:49;;;;;;;20.00;11.10;;;;;;;5.83;98.54;99801.07;105352;1267;102643;-78
2023/03/13 08:02:35;;;;;;;17.00;10.60;;;;;;;5.93;98.60;99799.96;105265;1267;99763;-77
2023/03/13 08:05:20;;;;;;;19.60;11.00;;;;;;;6.03;98.72;99797.20;105562;1267;98013;-79
2023/03/13 08:08:05;;;;;;;16.80;10.30;;;;;;;6.10;98.39;99800.23;105836;1262;97952;-79
2023/03/13 08:10:51;;;;;;;21.00;10.50;;;;;;;6.17;98.21;99798.15;105730;1263;98512;-79
2023/03/13 08:13:38;;;;;;;23.00;10.60;;;;;;;6.24;98.11;99797.57;105713;1262;101316;-79
2023/03/13 08:16:29;;;;;;;15.30;9.30;;;;;;;6.29;98.22;99797.81;105663;1265;99087;-79
2023/03/13 08:19:16;;;;;;;15.80;10.20;;;;;;;6.34;97.75;99797.98;106470;1262;98980;-88
2023/03/13 08:22:03;;;;;;;18.30;9.90;;;;;;;6.39;97.67;99791.75;106232;1268;98007;-88
2023/03/13 08:24:49;;;;;;;20.30;9.60;;;;;;;6.45;97.88;99788.88;106029;1267;99678;-78
2023/03/13 08:27:34;;;;;;;14.70;10.40;;;;;;;6.53;97.93;99782.99;105172;1262;103517;-78
2023/03/13 08:30:20;;;;;;;18.30;10.70;;;;;;;6.62;98.20;99777.41;105622;1262;100353;-84
2023/03/13 08:33:07;;;;;;;17.00;10.90;;;;;;;6.72;98.16;99769.95;105940;1262;99108;-79
2023/03/13 08:35:53;;;;;;;15.10;8.90;;;;;;;6.84;98.08;99766.97;105774;1264;98062;-77
2023/03/13 08:38:45;;;;;;;16.60;10.50;;;;;;;6.93;97.73;99760.30;105319;1262;98400;-84
2023/03/13 08:41:36;;;;;;;14.90;10.50;;;;;;;7.03;97.65;99754.58;105640;1262;102606;-84
2023/03/13 08:44:22;;;;;;;16.40;9.70;;;;;;;7.12;97.55;99746.17;105740;1262;101041;-84
2023/03/13 08:47:08;;;;;;;14.90;9.30;;;;;;;7.22;97.62;99741.79;106287;1263;98293;-80
2023/03/13 08:49:54;;;;;;;16.80;10.00;;;;;;;7.31;97.44;99734.21;105822;1270;98054;-82
2023/03/13 08:52:43;;;;;;;15.30;9.40;;;;;;;7.42;97.65;99731.30;105778;1262;97905;-87
2023/03/13 08:55:29;;;;;;;17.90;9.40;;;;;;;7.53;97.44;99729.58;105780;1267;101811;-81
2023/03/13 08:58:15;;;;;;;20.90;10.10;;;;;;;7.63;97.37;99723.99;105835;1266;99151;-81
2023/03/13 09:01:09;;;;;;;19.90;9.60;;;;;;;7.74;97.07;99720.50;105543;1262;98080;-83
2023/03/13 09:03:55;;;;;;;15.20;9.30;;;;;;;7.86;96.87;99716.96;105858;1263;98175;-80
2023/03/13 09:06:41;;;;;;;19.70;8.40;;;;;;;7.96;96.57;99718.29;105788;1266;99666;-85
2023/03/13 09:09:28;;;;;;;16.80;8.90;;;;;;;8.06;96.21;99713.30;106322;1262;102385;-88
2023/03/13 09:12:13;;;;;;;15.30;9.00;;;;;;;8.16;96.29;99709.33;105856;1262;100827;-86
2023/03/13 09:14:59;;;;;;;21.90;9.20;;;;;;;8.26;96.39;99705.94;104808;1267;98000;-76
2023/03/13 09:17:44;;;;;;;19.00;9.90;;;;;;;8.35;95.99;99704.57;105018;1267;98136;-77
2023/03/13 09:20:30;;;;;;;14.00;8.30;;;;;;;8.43;95.88;99696.13;105342;1262;98495;-77
2023/03/13 09:23:16;;;;;;;19.10;8.40;;;;;;;8.51;95.59;99693.15;106269;1267;101344;-80
2023/03/13 09:26:02;;;;;;;15.30;8.40;;;;;;;8.60;95.30;99691.69;106124;1262;100999;-78
2023/03/13 09:28:49;;;;;;;12.10;7.80;;;;;;;8.67;94.95;99689.81;105455;1262;106380;-88
2023/03/13 09:31:34;;;;;;;16.60;7.50;;;;;;;8.72;94.62;99681.70;105257;1262;98091;-78
2023/03/13 09:34:22;;;;;;;16.00;8.20;;;;;;;8.78;94.54;99684.33;105377;1264;98456;-78
2023/03/13 09:37:07;;;;;;;18.30;8.40;;;;;;;8.83;94.00;99680.61;105225;1266;102627;-78
2023/03/13 09:39:53;;;;;;;15.40;8.00;;;;;;;8.88;93.76;99673.52;105141;1262;99089;-78
2023/03/13 09:42:59;;;;;;;14.70;8.30;;;;;;;8.94;93.35;99666.56;105226;1266;97974;-78
2023/03/13 09:45:48;;;;;;;16.60;8.40;;;;;;;8.97;93.08;99666.88;105306;1263;98006;-86
2023/03/13 09:48:43;;;;;;;14.40;7.90;;;;;;;9.00;92.89;99664.42;105703;1262;99352;-78
2023/03/13 09:51:35;;;;;;;18.00;7.30;;;;;;;9.06;93.06;99663.38;105301;1262;101348;-77
2023/03/13 09:54:23;;;;;;;13.50;7.40;;;;;;;9.10;92.77;99664.21;105268;1262;99093;-84
2023/03/13 09:57:23;;;;;;;18.40;8.40;;;;;;;9.14;92.53;99662.45;105748;1262;99929;-77
2023/03/13 10:00:31;;;;;;;14.10;8.10;;;;;;;9.18;92.51;99660.13;105081;1262;98169;-78
2023/03/13 10:03:24;;;;;;;20.50;7.80;;;;;;;9.20;92.52;99663.30;105775;1262;99359;-81
2023/03/13 10:06:19;;;;;;;17.40;7.80;;;;;;;9.21;91.83;99664.01;106496;1262;102296;-85
2023/03/13 10:09:19;;;;;;;17.10;8.10;;;;;;;9.21;91.96;99663.52;106155;1262;99115;-88
2023/03/13 10:12:24;;;;;;;17.20;8.60;;;;;;;9.23;92.41;99662.25;105776;1268;99304;-85
2023/03/13 10:15:35;;;;;;;15.20;7.70;;;;;;;9.26;93.05;99662.59;105752;1268;97949;-85
2023/03/13 10:18:22;;;;;;;;;;;;;;;9.29;93.00;99661.20;106205;1261;97937;-88
2023/03/13 10:21:20;;;;;;;14.50;6.90;;;;;;;9.28;92.93;99654.88;106173;1262;102435;-83
2023/03/13 10:24:17;;;;;;;20.90;8.10;;;;;;;9.28;92.77;99644.79;106307;1261;99231;-77
2023/03/13 10:27:03;;;;;;;15.20;7.50;;;;;;;9.26;93.07;99641.53;105166;1278;97990;-78
2023/03/13 10:29:48;;;;;;;15.40;7.10;;;;;;;9.27;93.38;99635.21;105645;1261;97898;-79
2023/03/13 10:32:34;;;;;;;18.00;8.40;;;;;;;9.29;93.22;99627.98;105391;1267;98463;-79
2023/03/13 10:35:23;;;;;;;17.20;8.00;;;;;;;9.33;93.30;99622.52;105219;1264;101350;-79
2023/03/13 10:38:17;;;;;;;16.80;7.70;;;;;;;9.39;93.30;99613.23;105115;1268;107875;-78
2023/03/13 10:41:17;;;;;;;15.00;7.40;;;;;;;9.43;92.89;99613.69;105179;1262;98003;-80
2023/03/13 10:44:07;;;;;;;16.60;7.40;;;;;;;9.47;92.72;99615.83;105375;1262;97982;-80
2023/03/13 10:46:59;;;;;;;17.20;8.00;;;;;;;9.51;92.62;99612.29;105238;1262;97958;-79
2023/03/13 10:49:54;;;;;;;18.50;7.00;;;;;;;9.56;92.49;99605.73;105338;1262;101381;-79
2023/03/13 10:52:43;;;;;;;16.90;7.50;;;;;;;9.62;92.23;99604.34;105260;1266;100549;-79
2023/03/13 10:55:29;;;;;;;15.90;8.00;;;;;;;9.70;92.19;99597.36;105163;1266;98046;-80
2023/03/13 10:58:21;;;;;;;18.30;7.40;;;;;;;9.80;92.11;99591.05;105242;1263;98847;-79
2023/03/13 11:01:28;;;;;;;18.80;8.00;;;;;;;9.89;91.80;99587.27;105510;1267;98424;-78
2023/03/13 11:04:32;;;;;;;16.80;7.10;;;;;;;9.96;91.31;99574.35;105152;1267;103741;-79
2023/03/13 11:07:37;;;;;;;15.30;6.70;;;;;;;10.02;91.12;99560.51;105971;1262;99072;-79
2023/03/13 11:10:36;;;;;;;16.40;7.30;;;;;;;10.13;90.93;99548.09;105589;1266;99925;-80
2023/03/13 11:13:41;;;;;;;15.10;7.80;;;;;;;10.22;90.67;99537.65;105501;1270;97988;-78
2023/03/13 11:16:28;;;;;;;21.20;8.20;;;;;;;10.29;90.23;99529.35;105263;1267;99547;-79
2023/03/13 11:19:32;;;;;;;19.10;8.30;;;;;;;10.37;90.05;99526.60;105329;1266;101443;-80
2023/03/13 11:22:43;;;;;;;17.20;7.70;;;;;;;10.47;90.06;99520.10;105218;1266;99114;-79
2023/03/13 11:25:49;;;;;;;32.40;9.60;;;;;;;10.55;89.52;99512.81;105344;1266;99079;-79
2023/03/13 11:28:47;;;;;;;13.40;6.50;;;;;;;10.66;89.51;99502.42;105297;1262;98017;-79
2023/03/13 11:31:38;;;;;;;24.60;8.80;;;;;;;10.76;89.30;99498.09;105503;1266;98406;-82
2023/03/13 11:34:42;;;;;;;19.00;7.30;;;;;;;10.86;89.08;99493.30;105527;1261;102702;-80
2023/03/13 11:37:31;;;;;;;17.70;7.70;;;;;;;10.97;88.70;99485.88;105356;1268;99149;-80
2023/03/13 11:40:24;;;;;;;18.60;6.40;;;;;;;11.05;88.24;99481.34;105327;1270;99006;-79
2023/03/13 11:43:26;;;;;;;15.60;6.10;;;;;;;11.13;87.93;99480.73;105370;1266;98140;-79
2023/03/13 11:46:25;;;;;;;24.40;7.80;;;;;;;11.19;87.72;99473.78;105949;1262;97875;-79
2023/03/13 11:49:28;;;;;;;14.40;6.70;;;;;;;11.22;87.28;99465.46;105864;1261;101350;-79
2023/03/13 11:52:27;;;;;;;16.40;6.60;;;;;;;11.23;86.88;99466.37;105271;1262;99093;-79
2023/03/13 11:55:40;;;;;;;13.30;6.60;;;;;;;11.23;86.46;99467.23;105670;1262;98974;-80
2023/03/13 11:58:49;;;;;;;18.30;8.10;;;;;;;11.24;86.70;99468.95;105543;1262;97919;-83
2023/03/13 12:01:42;;;;;;;16.30;6.00;;;;;;;11.23;86.34;99462.23;106071;1262;98545;-84
2023/03/13 12:04:34;;;;;;;19.40;6.10;;;;;;;11.23;86.49;99459.92;106002;1267;101707;-79
2023/03/13 12:07:28;;;;;;;11.80;5.80;;;;;;;11.24;86.50;99459.25;105206;1264;100447;-80
2023/03/13 12:10:18;;;;;;;13.90;6.40;;;;;;;11.22;86.49;99459.67;106253;1261;99595;-79
2023/03/13 12:13:31;;;;;;;18.70;6.80;;;;;;;11.20;86.66;99455.41;105218;1267;98019;-79
2023/03/13 12:16:25;;;;;;;17.70;6.20;;;;;;;11.15;86.19;99451.28;105443;1262;98496;-82
2023/03/13 12:19:16;;;;;;;16.20;6.20;;;;;;;11.08;86.53;99451.55;105407;1264;101313;-80
2023/03/13 12:22:13;;;;;;;17.20;4.90;;;;;;;11.02;86.59;99447.68;105538;1262;99218;-85
2023/03/13 12:25:11;;;;;;;15.60;5.10;;;;;;;10.96;86.88;99448.88;105695;1264;98672;-87
2023/03/13 12:28:30;;;;;;;15.00;5.70;;;;;;;10.92;87.24;99440.91;105735;1262;97974;-84
2023/03/13 12:31:31;;;;;;;17.80;5.60;;;;;;;10.87;87.70;99438.40;105830;1262;96681;-87
2023/03/13 12:34:21;;;;;;;;;;;;;;;10.82;88.17;99435.65;105707;1262;102614;-76
2023/03/13 12:37:33;;;;;;;14.90;6.00;;;;;;;10.76;88.29;99434.13;105616;1263;100509;-84
2023/03/13 12:40:28;;;;;;;17.00;5.60;;;;;;;10.72;88.85;99432.60;105765;1267;97990;-82
2023/03/13 12:43:35;;;;;;;23.90;7.40;;;;;;;10.69;89.32;99428.87;105737;1262;98035;-81
2023/03/13 12:46:35;;;;;;;15.10;5.60;;;;;;;10.66;89.40;99424.84;106181;1268;98402;-89
2023/03/13 12:49:49;;;;;;;14.00;5.40;;;;;;;10.64;90.05;99421.02;106126;1262;102102;-89
2023/03/13 12:52:57;;;;;;;19.00;6.00;;;;;;;10.62;90.95;99412.05;105699;1262;99074;-85
2023/03/13 12:56:02;;;;;;;14.70;5.50;;;;;;;10.61;91.13;99402.84;105817;1262;99007;-88
2023/03/13 13:02:28;;;;;;;14.70;5.30;;;;;;;10.57;92.10;99397.25;106383;1263;97801;-85
2023/03/13 13:05:22;;;;;;;14.90;5.70;;;;;;;10.56;92.59;99391.06;106201;1263;103107;-85
2023/03/13 13:08:23;;;;;;;13.00;5.60;;;;;;;10.55;92.83;99384.38;105915;1264;99805;-82
2023/03/13 13:11:46;;;;;;;17.40;6.00;;;;;;;10.52;92.82;99379.63;105688;1262;97956;-85
2023/03/13 13:14:47;;;;;;;18.40;5.20;;;;;;;10.49;93.25;99375.19;105628;1264;97880;-85